createdAt,value
2023-03-21T00:08:03.685Z,66.84
2023-03-21T00:18:25.984Z,66.88
2023-03-21T00:28:47.019Z,66.51
2023-03-21T00:39:08.493Z,66.76
2023-03-21T00:49:33.874Z,66.34
2023-03-21T00:59:58.873Z,66.50
2023-03-21T01:10:20.242Z,66.61
2023-03-21T01:20:42.969Z,66.24
2023-03-21T01:31:05.686Z,66.62
2023-03-21T01:41:42.581Z,66.80
2023-03-21T01:52:37.400Z,66.96
2023-03-21T02:03:20.979Z,66.71
2023-03-21T02:14:05.686Z,66.38
2023-03-21T02:25:01.393Z,66.12
2023-03-21T02:35:44.145Z,66.52
2023-03-21T02:46:49.008Z,66.27
2023-03-21T02:57:17.516Z,66.25
2023-03-21T03:07:54.632Z,66.30
2023-03-21T03:18:34.869Z,66.67
2023-03-21T03:28:59.728Z,66.32
2023-03-21T03:39:21.457Z,66.35
2023-03-21T03:50:01.231Z,66.80
2023-03-21T04:00:25.567Z,66.78
2023-03-21T04:10:47.412Z,67.20
2023-03-21T04:21:13.354Z,66.71
2023-03-21T04:31:36.202Z,66.96
2023-03-21T04:42:05.103Z,67.15
2023-03-21T04:52:27.345Z,66.46
2023-03-21T05:02:48.866Z,67.23
2023-03-21T05:13:10.287Z,67.21
2023-03-21T05:23:31.875Z,67.08
2023-03-21T05:33:53.801Z,67.08
2023-03-21T05:44:16.228Z,66.83
2023-03-21T05:54:38.209Z,67.22
2023-03-21T06:05:00.038Z,66.90
2023-03-21T06:15:21.726Z,66.83
2023-03-21T06:25:50.397Z,66.73
2023-03-21T06:36:11.910Z,67.39
2023-03-21T06:46:33.624Z,67.46
2023-03-21T06:56:56.078Z,66.95
2023-03-21T07:07:26.368Z,66.69
2023-03-21T07:17:47.970Z,66.80
2023-03-21T07:28:09.496Z,66.21
2023-03-21T07:38:31.358Z,66.21
2023-03-21T07:48:53.033Z,65.68
2023-03-21T07:59:14.635Z,65.63
2023-03-21T08:09:37.142Z,65.64
2023-03-21T08:19:58.408Z,65.69
2023-03-21T08:30:22.139Z,65.22
2023-03-21T08:40:43.276Z,64.99
2023-03-21T08:51:04.144Z,64.57
2023-03-21T09:01:25.175Z,64.87
2023-03-21T09:11:46.601Z,64.56
2023-03-21T09:22:11.309Z,63.88
2023-03-21T09:32:33.123Z,63.83
2023-03-21T09:43:27.636Z,63.67
2023-03-21T09:53:50.902Z,63.72
2023-03-21T10:04:13.875Z,64.10
2023-03-21T10:14:41.500Z,64.26
2023-03-21T10:25:02.667Z,63.93
2023-03-21T10:35:23.609Z,64.33
2023-03-21T10:45:48.933Z,63.84
2023-03-21T10:56:11.222Z,64.06
2023-03-21T11:06:34.275Z,64.03
2023-03-21T11:16:55.623Z,63.90
2023-03-21T11:27:16.918Z,64.15
2023-03-21T11:37:39.488Z,63.45
2023-03-21T11:48:02.884Z,64.04
2023-03-21T11:58:36.623Z,63.70
2023-03-21T12:09:01.171Z,63.27
2023-03-21T12:19:51.288Z,63.63
2023-03-21T12:30:32.555Z,63.22
2023-03-21T12:41:21.638Z,63.48
2023-03-21T12:51:47.172Z,63.01
2023-03-21T13:02:32.310Z,63.00
2023-03-21T13:13:13.665Z,63.21
2023-03-21T13:23:39.472Z,62.89
2023-03-21T13:34:00.718Z,63.29
2023-03-21T13:44:44.788Z,63.67
2023-03-21T13:55:17.065Z,63.60
2023-03-21T14:05:39.570Z,63.89
2023-03-21T14:16:06.836Z,63.96
2023-03-21T14:26:34.516Z,64.37
2023-03-21T14:36:58.604Z,64.33
2023-03-21T14:47:26.254Z,64.83
2023-03-21T14:57:48.626Z,64.74
2023-03-21T15:08:14.257Z,65.07
2023-03-21T15:18:37.979Z,65.44
2023-03-21T15:28:59.988Z,65.52
2023-03-21T15:39:21.802Z,64.93
2023-03-21T15:49:43.101Z,65.03
2023-03-21T16:00:12.177Z,64.48
2023-03-21T16:10:37.609Z,64.14
2023-03-21T16:20:59.587Z,64.43
2023-03-21T16:31:23.371Z,64.02
2023-03-21T16:41:45.306Z,64.48
2023-03-21T16:52:06.762Z,64.51
2023-03-21T17:02:28.298Z,64.23
2023-03-21T17:12:49.730Z,64.30
2023-03-21T17:23:11.161Z,64.68
2023-03-21T17:33:32.119Z,64.47
2023-03-21T17:43:53.780Z,64.41
2023-03-21T17:54:15.104Z,64.44
2023-03-21T18:04:36.406Z,64.39
2023-03-21T18:14:57.476Z,64.20
2023-03-21T18:25:18.674Z,64.49
2023-03-21T18:35:40.276Z,64.41
2023-03-21T18:46:02.380Z,64.51
2023-03-21T18:57:13.227Z,64.75
2023-03-21T19:07:05.328Z,64.61
2023-03-21T19:18:21.796Z,64.50
2023-03-21T19:28:09.976Z,63.99
2023-03-21T19:38:31.564Z,64.58
2023-03-21T19:48:56.422Z,64.07
2023-03-21T19:59:18.426Z,64.66
2023-03-21T20:09:51.253Z,64.51
2023-03-21T20:20:17.137Z,64.76
2023-03-21T20:30:39.008Z,64.88
2023-03-21T20:41:04.151Z,65.07
2023-03-21T21:02:10.490Z,64.49
2023-03-21T21:12:31.785Z,64.38
2023-03-21T21:22:59.503Z,64.72
2023-03-21T21:33:22.661Z,64.95
2023-03-21T21:43:43.911Z,65.10
2023-03-21T21:54:06.144Z,64.91
2023-03-21T22:04:28.089Z,65.67
2023-03-21T22:14:49.429Z,65.20
2023-03-21T22:25:13.304Z,65.21
2023-03-21T22:35:35.102Z,64.98
2023-03-21T22:45:56.370Z,64.81
2023-03-21T22:56:17.645Z,65.51
2023-03-21T23:06:39.825Z,64.96
2023-03-21T23:17:02.893Z,65.45
2023-03-21T23:27:24.227Z,64.95
2023-03-21T23:37:52.410Z,64.69
2023-03-21T23:48:13.641Z,65.41
2023-03-21T23:58:35.058Z,65.74
